sensor_id;sensor_type;location;lat;lon;timestamp;temperature;humidity
2130;DHT22;1071;52.544;13.374;2023-06-26T00:02:17;23.20;99.90
2130;DHT22;1071;52.544;13.374;2023-06-26T00:04:48;23.10;99.90
2130;DHT22;1071;52.544;13.374;2023-06-26T00:07:26;23.10;99.90
2130;DHT22;1071;52.544;13.374;2023-06-26T00:10:00;23.10;99.90
2130;DHT22;1071;52.544;13.374;2023-06-26T00:12:28;23.10;99.90
2130;DHT22;1071;52.544;13.374;2023-06-26T00:14:55;23.10;99.90
2130;DHT22;1071;52.544;13.374;2023-06-26T00:17:23;23.10;99.90
2130;DHT22;1071;52.544;13.374;2023-06-26T00:19:51;23.10;99.90
2130;DHT22;1071;52.544;13.374;2023-06-26T00:22:18;23.00;99.90
2130;DHT22;1071;52.544;13.374;2023-06-26T00:24:47;23.00;99.90
2130;DHT22;1071;52.544;13.374;2023-06-26T00:27:15;23.00;99.90
2130;DHT22;1071;52.544;13.374;2023-06-26T00:29:48;23.00;99.90
2130;DHT22;1071;52.544;13.374;2023-06-26T00:32:18;23.00;99.90
2130;DHT22;1071;52.544;13.374;2023-06-26T00:34:45;23.00;99.90
2130;DHT22;1071;52.544;13.374;2023-06-26T00:37:12;23.00;99.90
2130;DHT22;1071;52.544;13.374;2023-06-26T00:39:39;22.90;99.90
2130;DHT22;1071;52.544;13.374;2023-06-26T00:42:11;22.90;99.90
2130;DHT22;1071;52.544;13.374;2023-06-26T00:44:38;22.90;99.90
2130;DHT22;1071;52.544;13.374;2023-06-26T00:47:09;22.90;99.90
2130;DHT22;1071;52.544;13.374;2023-06-26T00:49:41;22.90;99.90
2130;DHT22;1071;52.544;13.374;2023-06-26T00:52:09;22.90;99.90
2130;DHT22;1071;52.544;13.374;2023-06-26T00:54:39;22.90;99.90
2130;DHT22;1071;52.544;13.374;2023-06-26T00:57:06;22.90;99.90
2130;DHT22;1071;52.544;13.374;2023-06-26T00:59:35;23.00;99.90
2130;DHT22;1071;52.544;13.374;2023-06-26T01:02:07;23.00;99.90
2130;DHT22;1071;52.544;13.374;2023-06-26T01:04:35;23.00;99.90
2130;DHT22;1071;52.544;13.374;2023-06-26T01:07:04;23.00;99.90
2130;DHT22;1071;52.544;13.374;2023-06-26T01:09:33;23.00;99.90
2130;DHT22;1071;52.544;13.374;2023-06-26T01:12:01;23.00;99.90
2130;DHT22;1071;52.544;13.374;2023-06-26T01:14:28;23.00;99.90
2130;DHT22;1071;52.544;13.374;2023-06-26T01:16:57;23.00;99.90
2130;DHT22;1071;52.544;13.374;2023-06-26T01:19:26;23.00;99.90
2130;DHT22;1071;52.544;13.374;2023-06-26T01:21:58;23.00;99.90
2130;DHT22;1071;52.544;13.374;2023-06-26T01:24:33;23.00;99.90
2130;DHT22;1071;52.544;13.374;2023-06-26T01:27:05;23.00;99.90
2130;DHT22;1071;52.544;13.374;2023-06-26T01:29:33;23.00;99.90
2130;DHT22;1071;52.544;13.374;2023-06-26T01:32:02;23.00;99.90
2130;DHT22;1071;52.544;13.374;2023-06-26T01:34:30;23.00;99.90
2130;DHT22;1071;52.544;13.374;2023-06-26T01:36:57;23.00;99.90
2130;DHT22;1071;52.544;13.374;2023-06-26T01:39:27;23.00;99.90
2130;DHT22;1071;52.544;13.374;2023-06-26T01:41:54;23.00;99.90
2130;DHT22;1071;52.544;13.374;2023-06-26T01:44:29;23.00;99.90
2130;DHT22;1071;52.544;13.374;2023-06-26T01:47:01;23.00;99.90
2130;DHT22;1071;52.544;13.374;2023-06-26T01:49:46;23.00;99.90
2130;DHT22;1071;52.544;13.374;2023-06-26T01:52:19;23.00;99.90
2130;DHT22;1071;52.544;13.374;2023-06-26T01:54:54;23.00;99.90
2130;DHT22;1071;52.544;13.374;2023-06-26T01:57:22;23.00;99.90
2130;DHT22;1071;52.544;13.374;2023-06-26T01:59:55;23.00;99.90
2130;DHT22;1071;52.544;13.374;2023-06-26T02:02:23;23.00;99.90
2130;DHT22;1071;52.544;13.374;2023-06-26T02:04:51;23.00;99.90
2130;DHT22;1071;52.544;13.374;2023-06-26T02:07:39;23.00;99.90
2130;DHT22;1071;52.544;13.374;2023-06-26T02:10:08;23.00;99.90
2130;DHT22;1071;52.544;13.374;2023-06-26T02:12:36;23.00;99.90
2130;DHT22;1071;52.544;13.374;2023-06-26T02:15:06;23.00;99.90
2130;DHT22;1071;52.544;13.374;2023-06-26T02:17:36;23.00;99.90
2130;DHT22;1071;52.544;13.374;2023-06-26T02:20:03;23.00;99.90
2130;DHT22;1071;52.544;13.374;2023-06-26T02:22:31;23.00;99.90
2130;DHT22;1071;52.544;13.374;2023-06-26T02:24:58;23.00;99.90
2130;DHT22;1071;52.544;13.374;2023-06-26T02:27:25;23.00;99.90
2130;DHT22;1071;52.544;13.374;2023-06-26T02:29:53;22.90;99.90
2130;DHT22;1071;52.544;13.374;2023-06-26T02:32:21;22.90;99.90
2130;DHT22;1071;52.544;13.374;2023-06-26T02:34:48;22.90;99.90
2130;DHT22;1071;52.544;13.374;2023-06-26T02:37:17;23.00;99.90
2130;DHT22;1071;52.544;13.374;2023-06-26T02:39:44;22.90;99.90
2130;DHT22;1071;52.544;13.374;2023-06-26T02:42:11;23.00;99.90
2130;DHT22;1071;52.544;13.374;2023-06-26T02:44:38;22.90;99.90
2130;DHT22;1071;52.544;13.374;2023-06-26T02:47:05;23.00;99.90
2130;DHT22;1071;52.544;13.374;2023-06-26T02:49:37;23.00;99.90
2130;DHT22;1071;52.544;13.374;2023-06-26T02:52:04;22.90;99.90
2130;DHT22;1071;52.544;13.374;2023-06-26T02:54:31;22.90;99.90
2130;DHT22;1071;52.544;13.374;2023-06-26T02:56:58;22.90;99.90
2130;DHT22;1071;52.544;13.374;2023-06-26T02:59:26;22.90;99.90
2130;DHT22;1071;52.544;13.374;2023-06-26T03:01:53;22.90;99.90
2130;DHT22;1071;52.544;13.374;2023-06-26T03:04:20;22.90;99.90
2130;DHT22;1071;52.544;13.374;2023-06-26T03:06:54;22.90;99.90
2130;DHT22;1071;52.544;13.374;2023-06-26T03:09:21;22.80;99.90
2130;DHT22;1071;52.544;13.374;2023-06-26T03:11:50;22.80;99.90
2130;DHT22;1071;52.544;13.374;2023-06-26T03:14:18;22.80;99.90
2130;DHT22;1071;52.544;13.374;2023-06-26T03:16:45;22.80;99.90
2130;DHT22;1071;52.544;13.374;2023-06-26T03:19:12;22.80;99.90
2130;DHT22;1071;52.544;13.374;2023-06-26T03:21:39;22.80;99.90
2130;DHT22;1071;52.544;13.374;2023-06-26T03:24:07;22.80;99.90
2130;DHT22;1071;52.544;13.374;2023-06-26T03:26:37;22.70;99.90
2130;DHT22;1071;52.544;13.374;2023-06-26T03:29:05;22.70;99.90
2130;DHT22;1071;52.544;13.374;2023-06-26T03:31:33;22.70;99.90
2130;DHT22;1071;52.544;13.374;2023-06-26T03:34:01;22.70;99.90
2130;DHT22;1071;52.544;13.374;2023-06-26T03:36:29;22.70;99.90
2130;DHT22;1071;52.544;13.374;2023-06-26T03:38:57;22.70;99.90
2130;DHT22;1071;52.544;13.374;2023-06-26T03:41:27;22.70;99.90
2130;DHT22;1071;52.544;13.374;2023-06-26T03:43:55;22.70;99.90
2130;DHT22;1071;52.544;13.374;2023-06-26T03:46:25;22.70;99.90
2130;DHT22;1071;52.544;13.374;2023-06-26T03:48:53;22.70;99.90
2130;DHT22;1071;52.544;13.374;2023-06-26T03:51:23;22.70;99.90
2130;DHT22;1071;52.544;13.374;2023-06-26T03:53:54;22.70;99.90
2130;DHT22;1071;52.544;13.374;2023-06-26T03:56:26;22.80;99.90
2130;DHT22;1071;52.544;13.374;2023-06-26T03:58:55;22.80;99.90
2130;DHT22;1071;52.544;13.374;2023-06-26T04:01:22;22.80;99.90
2130;DHT22;1071;52.544;13.374;2023-06-26T04:03:49;22.80;99.90
2130;DHT22;1071;52.544;13.374;2023-06-26T04:06:19;22.90;99.90
2130;DHT22;1071;52.544;13.374;2023-06-26T04:08:46;22.90;99.90
2130;DHT22;1071;52.544;13.374;2023-06-26T04:11:13;22.90;99.90
2130;DHT22;1071;52.544;13.374;2023-06-26T04:13:40;23.00;99.90
2130;DHT22;1071;52.544;13.374;2023-06-26T04:16:09;23.10;99.90
2130;DHT22;1071;52.544;13.374;2023-06-26T04:18:37;23.10;99.90
2130;DHT22;1071;52.544;13.374;2023-06-26T04:21:05;23.20;99.90
2130;DHT22;1071;52.544;13.374;2023-06-26T04:23:33;23.20;99.90
2130;DHT22;1071;52.544;13.374;2023-06-26T04:26:01;23.30;99.90
2130;DHT22;1071;52.544;13.374;2023-06-26T04:28:28;23.30;99.90
2130;DHT22;1071;52.544;13.374;2023-06-26T04:30:55;23.30;99.90
2130;DHT22;1071;52.544;13.374;2023-06-26T04:33:24;23.40;99.90
2130;DHT22;1071;52.544;13.374;2023-06-26T04:35:54;23.50;99.90
2130;DHT22;1071;52.544;13.374;2023-06-26T04:38:21;23.50;99.90
2130;DHT22;1071;52.544;13.374;2023-06-26T04:40:48;23.50;99.90
2130;DHT22;1071;52.544;13.374;2023-06-26T04:43:18;23.60;99.90
2130;DHT22;1071;52.544;13.374;2023-06-26T04:45:45;23.60;99.90
2130;DHT22;1071;52.544;13.374;2023-06-26T04:48:13;23.70;99.90
2130;DHT22;1071;52.544;13.374;2023-06-26T04:50:43;23.70;99.90
2130;DHT22;1071;52.544;13.374;2023-06-26T04:53:18;23.70;99.90
2130;DHT22;1071;52.544;13.374;2023-06-26T04:55:45;23.80;99.90
2130;DHT22;1071;52.544;13.374;2023-06-26T04:58:12;23.80;99.90
2130;DHT22;1071;52.544;13.374;2023-06-26T05:00:39;23.90;99.90
2130;DHT22;1071;52.544;13.374;2023-06-26T05:03:08;23.90;99.90
2130;DHT22;1071;52.544;13.374;2023-06-26T05:05:35;24.00;99.90
2130;DHT22;1071;52.544;13.374;2023-06-26T05:08:15;24.00;99.90
2130;DHT22;1071;52.544;13.374;2023-06-26T05:10:45;24.10;99.90
2130;DHT22;1071;52.544;13.374;2023-06-26T05:13:12;24.20;99.90
2130;DHT22;1071;52.544;13.374;2023-06-26T05:15:43;24.20;99.90
2130;DHT22;1071;52.544;13.374;2023-06-26T05:18:10;24.30;99.90
2130;DHT22;1071;52.544;13.374;2023-06-26T05:20:38;24.30;99.90
2130;DHT22;1071;52.544;13.374;2023-06-26T05:23:05;24.40;99.90
2130;DHT22;1071;52.544;13.374;2023-06-26T05:25:34;24.40;99.90
2130;DHT22;1071;52.544;13.374;2023-06-26T05:28:02;24.50;99.90
2130;DHT22;1071;52.544;13.374;2023-06-26T05:30:31;24.50;99.90
2130;DHT22;1071;52.544;13.374;2023-06-26T05:33:03;24.60;99.90
2130;DHT22;1071;52.544;13.374;2023-06-26T05:35:31;24.60;99.90
2130;DHT22;1071;52.544;13.374;2023-06-26T05:37:59;24.60;99.90
2130;DHT22;1071;52.544;13.374;2023-06-26T05:40:29;24.70;99.90
2130;DHT22;1071;52.544;13.374;2023-06-26T05:42:58;24.70;99.90
2130;DHT22;1071;52.544;13.374;2023-06-26T05:45:25;24.70;99.90
2130;DHT22;1071;52.544;13.374;2023-06-26T05:47:52;24.80;99.90
2130;DHT22;1071;52.544;13.374;2023-06-26T05:50:20;24.80;99.90
2130;DHT22;1071;52.544;13.374;2023-06-26T05:52:47;24.80;99.90
2130;DHT22;1071;52.544;13.374;2023-06-26T05:55:15;24.90;99.90
2130;DHT22;1071;52.544;13.374;2023-06-26T05:57:43;24.90;99.90
2130;DHT22;1071;52.544;13.374;2023-06-26T06:00:14;24.90;99.90
2130;DHT22;1071;52.544;13.374;2023-06-26T06:02:42;25.00;99.90
2130;DHT22;1071;52.544;13.374;2023-06-26T06:05:12;25.00;99.90
2130;DHT22;1071;52.544;13.374;2023-06-26T06:07:41;25.10;99.90
2130;DHT22;1071;52.544;13.374;2023-06-26T06:10:09;25.20;99.90
2130;DHT22;1071;52.544;13.374;2023-06-26T06:12:36;25.30;99.90
2130;DHT22;1071;52.544;13.374;2023-06-26T06:15:03;25.40;99.90
2130;DHT22;1071;52.544;13.374;2023-06-26T06:17:33;25.50;99.90
2130;DHT22;1071;52.544;13.374;2023-06-26T06:20:00;25.60;99.90
2130;DHT22;1071;52.544;13.374;2023-06-26T06:22:28;25.70;99.90
2130;DHT22;1071;52.544;13.374;2023-06-26T06:24:54;25.90;99.90
2130;DHT22;1071;52.544;13.374;2023-06-26T06:27:31;26.00;99.90
2130;DHT22;1071;52.544;13.374;2023-06-26T06:30:03;26.20;99.90
2130;DHT22;1071;52.544;13.374;2023-06-26T06:32:31;26.30;99.90
2130;DHT22;1071;52.544;13.374;2023-06-26T06:35:07;26.50;99.90
2130;DHT22;1071;52.544;13.374;2023-06-26T06:37:40;26.70;99.90
2130;DHT22;1071;52.544;13.374;2023-06-26T06:40:09;26.90;99.90
2130;DHT22;1071;52.544;13.374;2023-06-26T06:42:43;27.00;99.90
2130;DHT22;1071;52.544;13.374;2023-06-26T06:45:10;27.10;99.90
2130;DHT22;1071;52.544;13.374;2023-06-26T06:47:39;27.30;99.90
2130;DHT22;1071;52.544;13.374;2023-06-26T06:50:06;27.40;99.90
2130;DHT22;1071;52.544;13.374;2023-06-26T06:52:37;27.60;99.90
2130;DHT22;1071;52.544;13.374;2023-06-26T06:55:07;27.70;99.90
2130;DHT22;1071;52.544;13.374;2023-06-26T06:57:38;27.90;99.90
2130;DHT22;1071;52.544;13.374;2023-06-26T07:00:10;28.00;99.90
2130;DHT22;1071;52.544;13.374;2023-06-26T07:02:41;28.10;99.90
2130;DHT22;1071;52.544;13.374;2023-06-26T07:05:12;28.20;99.90
2130;DHT22;1071;52.544;13.374;2023-06-26T07:07:39;28.40;99.90
2130;DHT22;1071;52.544;13.374;2023-06-26T07:10:08;28.40;99.90
2130;DHT22;1071;52.544;13.374;2023-06-26T07:12:35;28.60;99.90
2130;DHT22;1071;52.544;13.374;2023-06-26T07:15:04;28.70;99.90
2130;DHT22;1071;52.544;13.374;2023-06-26T07:17:32;28.90;99.90
2130;DHT22;1071;52.544;13.374;2023-06-26T07:20:03;29.00;99.90
2130;DHT22;1071;52.544;13.374;2023-06-26T07:22:35;29.10;99.90
2130;DHT22;1071;52.544;13.374;2023-06-26T07:25:02;29.20;99.90
2130;DHT22;1071;52.544;13.374;2023-06-26T07:27:34;29.30;99.90
2130;DHT22;1071;52.544;13.374;2023-06-26T07:30:01;29.40;99.90
2130;DHT22;1071;52.544;13.374;2023-06-26T07:32:28;29.50;99.90
2130;DHT22;1071;52.544;13.374;2023-06-26T07:34:55;29.60;99.90
2130;DHT22;1071;52.544;13.374;2023-06-26T07:37:24;29.70;99.00
2130;DHT22;1071;52.544;13.374;2023-06-26T07:39:52;29.90;98.60
2130;DHT22;1071;52.544;13.374;2023-06-26T07:42:19;30.00;98.60
2130;DHT22;1071;52.544;13.374;2023-06-26T07:44:48;30.10;98.20
2130;DHT22;1071;52.544;13.374;2023-06-26T07:47:16;30.20;97.70
2130;DHT22;1071;52.544;13.374;2023-06-26T07:49:42;30.30;97.00
2130;DHT22;1071;52.544;13.374;2023-06-26T07:52:09;30.40;97.50
2130;DHT22;1071;52.544;13.374;2023-06-26T07:54:38;30.50;97.20
2130;DHT22;1071;52.544;13.374;2023-06-26T07:57:05;30.60;96.80
2130;DHT22;1071;52.544;13.374;2023-06-26T07:59:34;30.70;96.20
2130;DHT22;1071;52.544;13.374;2023-06-26T08:02:01;30.80;96.30
2130;DHT22;1071;52.544;13.374;2023-06-26T08:04:28;30.90;95.90
2130;DHT22;1071;52.544;13.374;2023-06-26T08:06:58;30.90;94.00
2130;DHT22;1071;52.544;13.374;2023-06-26T08:09:27;31.00;94.90
2130;DHT22;1071;52.544;13.374;2023-06-26T08:11:56;31.20;94.90
2130;DHT22;1071;52.544;13.374;2023-06-26T08:14:24;31.20;94.10
2130;DHT22;1071;52.544;13.374;2023-06-26T08:16:51;31.30;94.20
2130;DHT22;1071;52.544;13.374;2023-06-26T08:19:18;31.30;94.40
2130;DHT22;1071;52.544;13.374;2023-06-26T08:21:48;31.40;93.30
2130;DHT22;1071;52.544;13.374;2023-06-26T08:24:15;31.50;93.00
2130;DHT22;1071;52.544;13.374;2023-06-26T08:26:50;31.50;92.80
2130;DHT22;1071;52.544;13.374;2023-06-26T08:29:21;31.50;92.30
2130;DHT22;1071;52.544;13.374;2023-06-26T08:31:48;31.60;92.10
2130;DHT22;1071;52.544;13.374;2023-06-26T08:34:15;31.70;91.80
2130;DHT22;1071;52.544;13.374;2023-06-26T08:36:42;31.70;91.80
2130;DHT22;1071;52.544;13.374;2023-06-26T08:39:10;31.70;91.40
2130;DHT22;1071;52.544;13.374;2023-06-26T08:41:37;31.70;90.40
2130;DHT22;1071;52.544;13.374;2023-06-26T08:44:04;31.70;90.50
2130;DHT22;1071;52.544;13.374;2023-06-26T08:46:34;31.70;90.30
2130;DHT22;1071;52.544;13.374;2023-06-26T08:49:01;31.70;89.80
2130;DHT22;1071;52.544;13.374;2023-06-26T08:51:33;31.60;87.60
2130;DHT22;1071;52.544;13.374;2023-06-26T08:54:08;31.60;87.60
2130;DHT22;1071;52.544;13.374;2023-06-26T08:56:42;31.60;87.30
2130;DHT22;1071;52.544;13.374;2023-06-26T08:59:09;31.60;87.50
2130;DHT22;1071;52.544;13.374;2023-06-26T09:01:45;31.60;86.90
2130;DHT22;1071;52.544;13.374;2023-06-26T09:04:14;31.60;86.50
2130;DHT22;1071;52.544;13.374;2023-06-26T09:06:47;31.50;84.30
2130;DHT22;1071;52.544;13.374;2023-06-26T09:09:14;31.50;83.40
2130;DHT22;1071;52.544;13.374;2023-06-26T09:11:41;31.40;85.50
2130;DHT22;1071;52.544;13.374;2023-06-26T09:14:08;31.30;83.10
2130;DHT22;1071;52.544;13.374;2023-06-26T09:16:42;31.30;85.00
2130;DHT22;1071;52.544;13.374;2023-06-26T09:19:10;31.40;85.70
2130;DHT22;1071;52.544;13.374;2023-06-26T09:21:41;31.30;85.40
2130;DHT22;1071;52.544;13.374;2023-06-26T09:24:12;31.30;82.90
2130;DHT22;1071;52.544;13.374;2023-06-26T09:26:40;31.30;84.40
2130;DHT22;1071;52.544;13.374;2023-06-26T09:29:07;31.30;84.20
2130;DHT22;1071;52.544;13.374;2023-06-26T09:31:46;31.30;84.40
2130;DHT22;1071;52.544;13.374;2023-06-26T09:34:14;31.20;84.40
2130;DHT22;1071;52.544;13.374;2023-06-26T09:36:41;31.20;83.90
2130;DHT22;1071;52.544;13.374;2023-06-26T09:39:12;31.10;84.40
2130;DHT22;1071;52.544;13.374;2023-06-26T09:41:43;31.00;84.20
2130;DHT22;1071;52.544;13.374;2023-06-26T09:44:11;31.00;83.60
2130;DHT22;1071;52.544;13.374;2023-06-26T09:46:39;31.00;83.60
2130;DHT22;1071;52.544;13.374;2023-06-26T09:49:09;31.00;83.60
2130;DHT22;1071;52.544;13.374;2023-06-26T09:51:50;31.00;84.10
2130;DHT22;1071;52.544;13.374;2023-06-26T09:54:17;31.00;84.30
2130;DHT22;1071;52.544;13.374;2023-06-26T09:56:44;30.90;84.40
2130;DHT22;1071;52.544;13.374;2023-06-26T09:59:23;30.90;83.70
2130;DHT22;1071;52.544;13.374;2023-06-26T10:04:49;30.80;82.30
2130;DHT22;1071;52.544;13.374;2023-06-26T10:07:17;30.80;82.10
2130;DHT22;1071;52.544;13.374;2023-06-26T10:09:46;30.80;83.00
2130;DHT22;1071;52.544;13.374;2023-06-26T10:12:19;30.70;83.20
2130;DHT22;1071;52.544;13.374;2023-06-26T10:14:54;30.70;80.90
2130;DHT22;1071;52.544;13.374;2023-06-26T10:17:25;30.70;81.10
2130;DHT22;1071;52.544;13.374;2023-06-26T10:19:55;30.70;82.20
2130;DHT22;1071;52.544;13.374;2023-06-26T10:22:28;30.70;82.80
2130;DHT22;1071;52.544;13.374;2023-06-26T10:25:09;30.70;82.80
2130;DHT22;1071;52.544;13.374;2023-06-26T10:27:42;30.70;82.50
2130;DHT22;1071;52.544;13.374;2023-06-26T10:30:16;30.80;83.50
2130;DHT22;1071;52.544;13.374;2023-06-26T10:32:56;30.80;83.80
2130;DHT22;1071;52.544;13.374;2023-06-26T10:35:28;30.70;81.30
2130;DHT22;1071;52.544;13.374;2023-06-26T10:38:00;30.70;81.80
2130;DHT22;1071;52.544;13.374;2023-06-26T10:40:40;30.70;84.30
2130;DHT22;1071;52.544;13.374;2023-06-26T10:43:09;30.80;83.50
2130;DHT22;1071;52.544;13.374;2023-06-26T10:45:36;30.80;81.90
2130;DHT22;1071;52.544;13.374;2023-06-26T10:48:09;30.80;81.90
2130;DHT22;1071;52.544;13.374;2023-06-26T10:50:39;30.90;82.90
2130;DHT22;1071;52.544;13.374;2023-06-26T10:53:14;30.90;82.80
2130;DHT22;1071;52.544;13.374;2023-06-26T10:55:49;30.90;81.10
2130;DHT22;1071;52.544;13.374;2023-06-26T10:58:31;30.90;81.80
2130;DHT22;1071;52.544;13.374;2023-06-26T11:01:16;30.90;79.90
2130;DHT22;1071;52.544;13.374;2023-06-26T11:03:45;30.90;80.20
2130;DHT22;1071;52.544;13.374;2023-06-26T11:06:17;30.90;82.30
2130;DHT22;1071;52.544;13.374;2023-06-26T11:08:48;30.80;83.20
2130;DHT22;1071;52.544;13.374;2023-06-26T11:11:18;30.80;83.40
2130;DHT22;1071;52.544;13.374;2023-06-26T11:13:46;30.80;83.50
2130;DHT22;1071;52.544;13.374;2023-06-26T11:16:15;30.80;82.00
2130;DHT22;1071;52.544;13.374;2023-06-26T11:18:42;30.80;83.20
2130;DHT22;1071;52.544;13.374;2023-06-26T11:21:12;30.80;82.10
2130;DHT22;1071;52.544;13.374;2023-06-26T11:23:41;30.80;81.60
2130;DHT22;1071;52.544;13.374;2023-06-26T11:26:15;30.80;80.90
2130;DHT22;1071;52.544;13.374;2023-06-26T11:28:50;30.90;82.30
2130;DHT22;1071;52.544;13.374;2023-06-26T11:31:32;30.90;80.80
2130;DHT22;1071;52.544;13.374;2023-06-26T11:34:02;30.90;80.40
2130;DHT22;1071;52.544;13.374;2023-06-26T11:36:29;31.00;79.20
2130;DHT22;1071;52.544;13.374;2023-06-26T11:38:59;31.00;79.70
2130;DHT22;1071;52.544;13.374;2023-06-26T11:41:27;31.10;80.90
2130;DHT22;1071;52.544;13.374;2023-06-26T11:43:55;31.10;80.40
2130;DHT22;1071;52.544;13.374;2023-06-26T11:46:22;31.20;80.70
2130;DHT22;1071;52.544;13.374;2023-06-26T11:48:50;31.20;80.60
2130;DHT22;1071;52.544;13.374;2023-06-26T11:51:17;31.20;79.90
2130;DHT22;1071;52.544;13.374;2023-06-26T11:53:46;31.30;80.40
2130;DHT22;1071;52.544;13.374;2023-06-26T11:56:16;31.30;80.20
2130;DHT22;1071;52.544;13.374;2023-06-26T11:58:57;31.20;80.70
2130;DHT22;1071;52.544;13.374;2023-06-26T12:01:36;31.20;81.30
2130;DHT22;1071;52.544;13.374;2023-06-26T12:04:09;31.20;80.80
2130;DHT22;1071;52.544;13.374;2023-06-26T12:06:40;31.10;80.80
2130;DHT22;1071;52.544;13.374;2023-06-26T12:09:09;31.10;81.70
2130;DHT22;1071;52.544;13.374;2023-06-26T12:11:38;31.10;81.10
2130;DHT22;1071;52.544;13.374;2023-06-26T12:14:10;31.00;81.10
2130;DHT22;1071;52.544;13.374;2023-06-26T12:16:38;31.00;80.60
2130;DHT22;1071;52.544;13.374;2023-06-26T12:19:07;31.00;80.20
2130;DHT22;1071;52.544;13.374;2023-06-26T12:21:48;31.00;80.60
2130;DHT22;1071;52.544;13.374;2023-06-26T12:24:19;31.00;81.00
2130;DHT22;1071;52.544;13.374;2023-06-26T12:26:50;31.00;79.80
2130;DHT22;1071;52.544;13.374;2023-06-26T12:29:29;31.00;79.60
2130;DHT22;1071;52.544;13.374;2023-06-26T12:31:58;30.90;80.30
2130;DHT22;1071;52.544;13.374;2023-06-26T12:34:27;30.90;78.80
2130;DHT22;1071;52.544;13.374;2023-06-26T12:37:00;30.80;76.30
2130;DHT22;1071;52.544;13.374;2023-06-26T12:39:27;30.90;76.50
2130;DHT22;1071;52.544;13.374;2023-06-26T12:42:00;30.90;77.70
2130;DHT22;1071;52.544;13.374;2023-06-26T12:44:29;30.90;76.30
2130;DHT22;1071;52.544;13.374;2023-06-26T12:46:58;31.00;76.80
2130;DHT22;1071;52.544;13.374;2023-06-26T12:49:30;31.00;78.00
2130;DHT22;1071;52.544;13.374;2023-06-26T12:51:58;31.10;79.50
2130;DHT22;1071;52.544;13.374;2023-06-26T12:54:28;31.10;80.00
2130;DHT22;1071;52.544;13.374;2023-06-26T12:56:57;31.00;79.40
2130;DHT22;1071;52.544;13.374;2023-06-26T12:59:24;31.00;79.10
2130;DHT22;1071;52.544;13.374;2023-06-26T13:01:51;31.00;79.30
2130;DHT22;1071;52.544;13.374;2023-06-26T13:04:18;30.90;80.10
2130;DHT22;1071;52.544;13.374;2023-06-26T13:06:48;30.90;78.90
2130;DHT22;1071;52.544;13.374;2023-06-26T13:09:15;30.80;78.60
2130;DHT22;1071;52.544;13.374;2023-06-26T13:11:42;30.80;78.60
2130;DHT22;1071;52.544;13.374;2023-06-26T13:14:11;30.80;78.80
2130;DHT22;1071;52.544;13.374;2023-06-26T13:16:39;30.70;79.50
2130;DHT22;1071;52.544;13.374;2023-06-26T13:19:06;30.70;79.60
2130;DHT22;1071;52.544;13.374;2023-06-26T13:21:36;30.70;79.90
2130;DHT22;1071;52.544;13.374;2023-06-26T13:24:04;30.70;80.30
2130;DHT22;1071;52.544;13.374;2023-06-26T13:26:32;30.60;80.30
2130;DHT22;1071;52.544;13.374;2023-06-26T13:29:02;30.60;80.40
2130;DHT22;1071;52.544;13.374;2023-06-26T13:31:31;30.60;81.20
2130;DHT22;1071;52.544;13.374;2023-06-26T13:34:02;30.50;81.30
2130;DHT22;1071;52.544;13.374;2023-06-26T13:36:30;30.50;81.50
2130;DHT22;1071;52.544;13.374;2023-06-26T13:39:00;30.40;81.60
2130;DHT22;1071;52.544;13.374;2023-06-26T13:41:27;30.30;81.90
2130;DHT22;1071;52.544;13.374;2023-06-26T13:43:56;30.20;81.20
2130;DHT22;1071;52.544;13.374;2023-06-26T13:46:23;30.20;81.50
2130;DHT22;1071;52.544;13.374;2023-06-26T13:48:52;30.10;81.80
2130;DHT22;1071;52.544;13.374;2023-06-26T13:51:19;30.00;82.60
2130;DHT22;1071;52.544;13.374;2023-06-26T13:53:46;30.00;83.00
2130;DHT22;1071;52.544;13.374;2023-06-26T13:56:13;29.90;82.80
2130;DHT22;1071;52.544;13.374;2023-06-26T13:58:40;29.90;83.60
2130;DHT22;1071;52.544;13.374;2023-06-26T14:01:07;29.80;84.60
2130;DHT22;1071;52.544;13.374;2023-06-26T14:03:36;29.80;85.10
2130;DHT22;1071;52.544;13.374;2023-06-26T14:06:04;29.70;84.90
2130;DHT22;1071;52.544;13.374;2023-06-26T14:08:31;29.60;86.00
2130;DHT22;1071;52.544;13.374;2023-06-26T14:10:58;29.60;86.70
2130;DHT22;1071;52.544;13.374;2023-06-26T14:13:26;29.50;88.20
2130;DHT22;1071;52.544;13.374;2023-06-26T14:15:53;29.40;87.80
2130;DHT22;1071;52.544;13.374;2023-06-26T14:18:22;29.30;87.80
2130;DHT22;1071;52.544;13.374;2023-06-26T14:20:49;29.20;88.20
2130;DHT22;1071;52.544;13.374;2023-06-26T14:23:17;29.10;89.50
2130;DHT22;1071;52.544;13.374;2023-06-26T14:25:45;28.90;91.80
2130;DHT22;1071;52.544;13.374;2023-06-26T14:28:12;28.80;96.60
2130;DHT22;1071;52.544;13.374;2023-06-26T14:30:39;28.50;99.90
2130;DHT22;1071;52.544;13.374;2023-06-26T14:33:06;28.40;99.90
2130;DHT22;1071;52.544;13.374;2023-06-26T14:35:33;28.00;99.90
2130;DHT22;1071;52.544;13.374;2023-06-26T14:38:03;27.70;99.90
2130;DHT22;1071;52.544;13.374;2023-06-26T14:40:31;27.40;99.90
2130;DHT22;1071;52.544;13.374;2023-06-26T14:42:58;27.00;99.90
2130;DHT22;1071;52.544;13.374;2023-06-26T14:45:25;26.70;99.90
2130;DHT22;1071;52.544;13.374;2023-06-26T14:47:52;26.30;99.90
2130;DHT22;1071;52.544;13.374;2023-06-26T14:50:23;26.10;99.90
2130;DHT22;1071;52.544;13.374;2023-06-26T14:52:50;25.80;99.90
2130;DHT22;1071;52.544;13.374;2023-06-26T14:55:17;25.60;99.90
2130;DHT22;1071;52.544;13.374;2023-06-26T14:57:45;25.40;99.90
2130;DHT22;1071;52.544;13.374;2023-06-26T15:00:13;25.20;99.90
2130;DHT22;1071;52.544;13.374;2023-06-26T15:02:40;25.10;99.90
2130;DHT22;1071;52.544;13.374;2023-06-26T15:05:08;25.00;99.90
2130;DHT22;1071;52.544;13.374;2023-06-26T15:07:35;24.80;99.90
2130;DHT22;1071;52.544;13.374;2023-06-26T15:10:03;24.80;99.90
2130;DHT22;1071;52.544;13.374;2023-06-26T15:12:31;24.70;99.90
2130;DHT22;1071;52.544;13.374;2023-06-26T15:15:00;24.50;99.90
2130;DHT22;1071;52.544;13.374;2023-06-26T15:17:27;24.40;99.90
2130;DHT22;1071;52.544;13.374;2023-06-26T15:19:54;24.20;99.90
2130;DHT22;1071;52.544;13.374;2023-06-26T15:22:22;24.00;99.90
2130;DHT22;1071;52.544;13.374;2023-06-26T15:24:49;23.90;99.90
2130;DHT22;1071;52.544;13.374;2023-06-26T15:27:16;23.70;99.90
2130;DHT22;1071;52.544;13.374;2023-06-26T15:29:43;23.60;99.90
2130;DHT22;1071;52.544;13.374;2023-06-26T15:32:14;23.50;99.90
2130;DHT22;1071;52.544;13.374;2023-06-26T15:34:42;23.50;99.90
2130;DHT22;1071;52.544;13.374;2023-06-26T15:37:09;23.40;99.90
2130;DHT22;1071;52.544;13.374;2023-06-26T15:39:36;23.40;99.90
2130;DHT22;1071;52.544;13.374;2023-06-26T15:42:05;23.40;99.90
2130;DHT22;1071;52.544;13.374;2023-06-26T15:44:32;23.40;99.90
2130;DHT22;1071;52.544;13.374;2023-06-26T15:46:59;23.40;99.90
2130;DHT22;1071;52.544;13.374;2023-06-26T15:49:28;23.40;99.90
2130;DHT22;1071;52.544;13.374;2023-06-26T15:51:57;23.40;99.90
2130;DHT22;1071;52.544;13.374;2023-06-26T15:54:26;23.40;99.90
2130;DHT22;1071;52.544;13.374;2023-06-26T15:56:53;23.40;99.90
2130;DHT22;1071;52.544;13.374;2023-06-26T15:59:20;23.40;99.90
2130;DHT22;1071;52.544;13.374;2023-06-26T16:01:47;23.40;99.90